createdAt,value
2022-12-13T00:10:44.694Z,192.9
2022-12-13T00:12:46.389Z,170.5
2022-12-13T00:14:48.090Z,158.7
2022-12-13T00:16:49.963Z,187.5
2022-12-13T00:20:53.192Z,177.2
2022-12-13T00:22:58.045Z,188.5
2022-12-13T00:24:59.729Z,169.3
2022-12-13T00:27:01.452Z,141.7
2022-12-13T00:28:03.887Z,175.3
2022-12-13T00:30:05.572Z,179.4
2022-12-13T00:32:07.348Z,183.1
2022-12-13T00:34:08.958Z,157.4
2022-12-13T00:36:13.877Z,203.2
2022-12-13T00:38:15.563Z,142.6
2022-12-13T00:40:17.270Z,155.4
2022-12-13T00:42:18.975Z,154.9
2022-12-13T00:50:28.895Z,193.1
2022-12-13T00:52:30.569Z,164.5
2022-12-13T00:54:32.279Z,210.9
2022-12-13T00:58:35.665Z,183.5
2022-12-13T01:00:37.309Z,183.4
2022-12-13T01:06:45.549Z,263
2022-12-13T01:12:50.557Z,199.6
2022-12-13T01:14:56.091Z,249
2022-12-13T01:18:58.756Z,210.7
2022-12-13T01:21:00.498Z,193.9
2022-12-13T01:23:02.146Z,203.7
2022-12-13T01:24:04.568Z,170.5
2022-12-13T01:26:06.241Z,165.5
2022-12-13T01:28:07.906Z,164.6
2022-12-13T01:30:09.606Z,177.1
2022-12-13T01:32:14.439Z,198.3
2022-12-13T01:34:16.129Z,145
2022-12-13T01:36:17.792Z,163.7
2022-12-13T01:38:19.455Z,163.7
2022-12-13T01:40:21.123Z,150.4
2022-12-13T01:42:22.780Z,164.3
2022-12-13T01:44:24.461Z,177.6
2022-12-13T01:46:29.336Z,160
2022-12-13T01:48:30.974Z,171.4
2022-12-13T01:50:32.636Z,138.6
2022-12-13T01:52:34.306Z,157.7
2022-12-13T01:54:35.990Z,143
2022-12-13T01:56:37.636Z,158.6
2022-12-13T01:58:39.292Z,189.7
2022-12-13T02:00:44.145Z,161.9
2022-12-13T02:02:45.806Z,174.7
2022-12-13T02:04:47.525Z,172.4
2022-12-13T02:12:54.126Z,153.4
2022-12-13T02:19:02.307Z,132.6
2022-12-13T02:21:25.180Z,164.1
2022-12-13T02:23:26.875Z,148.8
2022-12-13T02:37:41.729Z,118.3
2022-12-13T02:39:43.390Z,107.2
2022-12-13T02:41:48.219Z,164.5
2022-12-13T02:43:49.902Z,155.1
2022-12-13T02:45:51.582Z,126.8
2022-12-13T02:47:53.255Z,123.6
2022-12-13T02:49:54.896Z,136.1
2022-12-13T02:51:56.563Z,118.3
2022-12-13T02:53:58.248Z,135.1
2022-12-13T02:56:03.110Z,153.8
2022-12-13T02:58:04.740Z,130.1
2022-12-13T03:02:10.451Z,167.9
2022-12-13T03:04:09.743Z,157.3
2022-12-13T03:06:11.400Z,160.9
2022-12-13T03:08:13.109Z,136.5
2022-12-13T03:10:17.902Z,133
2022-12-13T03:12:19.564Z,103.5
2022-12-13T03:14:21.216Z,110
2022-12-13T03:15:23.596Z,165.7
2022-12-13T03:17:25.246Z,126
2022-12-13T03:19:26.901Z,142.5
2022-12-13T03:21:28.555Z,152.6
2022-12-13T03:23:33.377Z,148.5
2022-12-13T03:29:38.336Z,113.7
2022-12-13T03:33:41.654Z,151.7
2022-12-13T03:35:44.726Z,148.3
2022-12-13T03:37:48.097Z,163.9
2022-12-13T03:39:49.760Z,136.7
2022-12-13T03:41:51.405Z,119
2022-12-13T03:43:53.047Z,131.2
2022-12-13T03:45:56.240Z,160.8
2022-12-13T03:47:57.802Z,127.9
2022-12-13T03:49:59.467Z,144.7
2022-12-13T03:52:04.292Z,128.3
2022-12-13T03:54:05.939Z,123.1
2022-12-13T03:56:07.573Z,132.4
2022-12-13T03:58:09.244Z,119.9
2022-12-13T04:00:10.915Z,160.3
2022-12-13T04:02:12.579Z,163.8
2022-12-13T04:04:14.182Z,121
2022-12-13T04:06:22.156Z,134.4
2022-12-13T04:08:22.233Z,108.2
2022-12-13T04:10:26.326Z,129
2022-12-13T04:11:24.720Z,144.4
2022-12-13T04:13:26.387Z,112.8
2022-12-13T04:15:27.992Z,117.7
2022-12-13T04:17:29.614Z,135.9
2022-12-13T04:19:34.465Z,152.6
2022-12-13T04:21:36.089Z,108.8
2022-12-13T04:23:37.766Z,105.8
2022-12-13T04:25:39.409Z,118
2022-12-13T04:27:41.043Z,125.2
2022-12-13T04:29:42.659Z,103.4
2022-12-13T04:31:44.357Z,117.3
2022-12-13T04:33:49.128Z,120
2022-12-13T04:35:50.786Z,135.1
2022-12-13T04:39:54.075Z,118
2022-12-13T04:41:55.738Z,134.5
2022-12-13T04:43:57.342Z,111.7
2022-12-13T04:45:59.075Z,108.5
2022-12-13T04:48:03.776Z,137.3
2022-12-13T04:50:05.470Z,111.3
2022-12-13T04:56:10.366Z,124.2
2022-12-13T05:00:13.644Z,137.3
2022-12-13T05:06:27.243Z,149.3
2022-12-13T05:07:24.147Z,134.8
2022-12-13T05:09:25.757Z,128.4
2022-12-13T05:11:27.416Z,136.8
2022-12-13T05:13:29.059Z,147.9
2022-12-13T05:15:33.868Z,169.2
2022-12-13T05:17:35.517Z,166.2
2022-12-13T05:19:37.117Z,142.2
2022-12-13T05:21:38.796Z,148.9
2022-12-13T05:23:40.423Z,126.9
2022-12-13T05:25:42.023Z,118.9
2022-12-13T05:27:43.669Z,150
2022-12-13T05:29:48.469Z,151.9
2022-12-13T05:31:50.131Z,167.7
2022-12-13T05:33:51.734Z,140.7
2022-12-13T05:35:59.192Z,154.1
2022-12-13T05:37:55.526Z,162.2
2022-12-13T05:39:56.669Z,147.8
2022-12-13T05:42:01.168Z,176.6
2022-12-13T05:44:03.099Z,161.4
2022-12-13T05:48:06.322Z,145.1
2022-12-13T05:50:07.985Z,121.9
2022-12-13T05:52:09.628Z,144.4
2022-12-13T05:54:11.235Z,120
2022-12-13T05:56:12.856Z,109.3
2022-12-13T05:58:23.288Z,151.2
2022-12-13T06:00:29.813Z,134.9
2022-12-13T06:02:21.770Z,128.4
2022-12-13T06:04:37.932Z,140.9
2022-12-13T06:06:39.550Z,180.5
2022-12-13T06:08:41.261Z,153.3
2022-12-13T06:10:46.016Z,166.6
2022-12-13T06:12:47.647Z,127.9
2022-12-13T06:14:49.283Z,172.9
2022-12-13T06:16:50.957Z,144.3
2022-12-13T06:18:57.471Z,141.3
2022-12-13T06:22:55.838Z,119.1
2022-12-13T06:25:00.615Z,166.1
2022-12-13T06:27:02.263Z,150.8
2022-12-13T06:29:03.911Z,127.5
2022-12-13T06:31:05.617Z,121.3
2022-12-13T06:33:07.156Z,142.4
2022-12-13T06:35:27.502Z,126.3
2022-12-13T06:37:10.429Z,154.8
2022-12-13T06:45:20.194Z,130.6
2022-12-13T06:49:23.482Z,124.5
2022-12-13T06:57:33.161Z,132.8
2022-12-13T06:58:35.608Z,140.9
2022-12-13T07:00:44.056Z,139.7
2022-12-13T07:02:39.007Z,136.8
2022-12-13T07:04:40.494Z,152.7
2022-12-13T07:06:45.319Z,128.2
2022-12-13T07:08:47.035Z,153.5
2022-12-13T07:10:48.614Z,109.6
2022-12-13T07:12:50.273Z,125.9
2022-12-13T07:14:51.856Z,142.3
2022-12-13T07:16:57.969Z,126.5
2022-12-13T07:18:55.150Z,154.5
2022-12-13T07:20:59.958Z,154.8
2022-12-13T07:23:01.589Z,126.5
2022-12-13T07:25:03.203Z,148.7
2022-12-13T07:29:06.490Z,146.2
2022-12-13T07:33:09.760Z,149.1
2022-12-13T07:35:14.574Z,164.7
2022-12-13T07:37:29.849Z,159.2
2022-12-13T07:39:17.845Z,154
2022-12-13T07:41:23.240Z,140
2022-12-13T07:43:21.574Z,122.4
2022-12-13T07:45:22.784Z,171.8
2022-12-13T07:49:29.173Z,128.4
2022-12-13T07:51:30.803Z,142.8
2022-12-13T07:53:33.361Z,140.7
2022-12-13T07:54:34.849Z,139.2
2022-12-13T07:56:36.508Z,128.3
2022-12-13T07:58:38.122Z,152.7
2022-12-13T08:00:39.748Z,139.3
2022-12-13T08:02:44.535Z,152.7
2022-12-13T08:04:46.325Z,181.7
2022-12-13T08:06:47.800Z,158.1
2022-12-13T08:08:49.435Z,176.8
2022-12-13T08:12:52.663Z,157.6
2022-12-13T08:16:59.082Z,174.9
2022-12-13T08:23:03.966Z,151
2022-12-13T08:33:15.277Z,149
2022-12-13T08:35:16.888Z,124.2
2022-12-13T08:37:18.550Z,168
2022-12-13T08:39:20.177Z,150.5
2022-12-13T08:43:24.718Z,132.2
2022-12-13T08:45:28.265Z,151.4
2022-12-13T08:47:29.881Z,144.6
2022-12-13T08:49:31.527Z,161.2
2022-12-13T08:50:33.949Z,153.1
2022-12-13T08:52:40.368Z,138.1
2022-12-13T08:54:37.205Z,134.4
2022-12-13T08:56:38.851Z,163
2022-12-13T08:58:43.648Z,199.8
2022-12-13T09:00:45.331Z,153.3
2022-12-13T09:02:47.063Z,201
2022-12-13T09:04:48.615Z,146
2022-12-13T09:06:50.239Z,149.7
2022-12-13T09:08:52.075Z,174.2
2022-12-13T09:10:53.592Z,192.2
2022-12-13T09:13:01.157Z,217.7
2022-12-13T09:15:01.443Z,182.1
2022-12-13T09:17:02.792Z,166.9
2022-12-13T09:21:10.915Z,162.3
2022-12-13T09:23:06.712Z,189.6
2022-12-13T09:25:08.380Z,186.1
2022-12-13T09:27:27.442Z,215.5
2022-12-13T09:29:14.891Z,207.1
2022-12-13T09:31:16.677Z,197
2022-12-13T09:39:24.850Z,210
2022-12-13T09:41:29.734Z,141.4
2022-12-13T09:48:01.368Z,132
2022-12-13T09:49:57.737Z,133.5
2022-12-13T09:52:11.197Z,147.8
2022-12-13T09:54:04.380Z,144.2
2022-12-13T09:56:10.803Z,157.5
2022-12-13T09:58:07.818Z,151.6
2022-12-13T10:00:09.567Z,131.4
2022-12-13T10:02:11.383Z,141.5
2022-12-13T10:04:13.053Z,140
2022-12-13T10:06:14.798Z,173.1
2022-12-13T10:08:19.722Z,164.3
2022-12-13T10:10:21.484Z,135.4
2022-12-13T10:14:24.998Z,129.9
2022-12-13T10:16:26.776Z,147.5
2022-12-13T10:18:28.551Z,154.9
2022-12-13T10:20:30.262Z,140
2022-12-13T10:22:35.182Z,173.3
2022-12-13T10:24:37.886Z,169.5
2022-12-13T10:26:38.807Z,157.2
2022-12-13T10:28:40.507Z,170.1
2022-12-13T10:30:42.307Z,176.3
2022-12-13T10:32:44.091Z,185.7
2022-12-13T10:34:45.861Z,202.4
2022-12-13T10:36:50.800Z,167.5
2022-12-13T10:38:52.607Z,172.6
2022-12-13T10:40:54.420Z,177.5
2022-12-13T10:43:58.761Z,211.1
2022-12-13T10:48:03.989Z,237
2022-12-13T10:50:07.308Z,211.2
2022-12-13T10:52:09.116Z,266.5
2022-12-13T10:54:10.935Z,221.9
2022-12-13T10:58:14.583Z,287.6
2022-12-13T11:00:16.430Z,272.4
2022-12-13T11:02:18.288Z,312.9
2022-12-13T11:06:25.094Z,361.2
2022-12-13T11:08:27.390Z,332.6
2022-12-13T11:10:28.885Z,383.6
2022-12-13T11:12:30.635Z,350.1
2022-12-13T11:14:32.727Z,413.8
2022-12-13T11:16:34.461Z,387.1
2022-12-13T11:18:39.391Z,354.8
2022-12-13T11:20:41.266Z,403.2
2022-12-13T11:24:45.042Z,354.4
2022-12-13T11:30:50.656Z,360.3
2022-12-13T11:32:59.040Z,340
2022-12-13T11:34:57.559Z,351.4
2022-12-13T11:36:59.432Z,329.1
2022-12-13T11:44:07.586Z,337.5
2022-12-13T11:48:14.584Z,303.9
2022-12-13T11:50:21.865Z,295.8
2022-12-13T11:52:18.313Z,276.1
2022-12-13T11:54:23.941Z,268.1
2022-12-13T11:56:22.129Z,286.2
2022-12-13T11:59:00.658Z,268.8
2022-12-13T12:00:33.659Z,262.2
2022-12-13T12:02:31.035Z,247.9
2022-12-13T12:04:32.861Z,266.2
2022-12-13T12:06:34.733Z,253.6
2022-12-13T12:08:36.633Z,267.5
2022-12-13T12:10:38.532Z,252.6
2022-12-13T12:12:40.463Z,212
2022-12-13T12:14:45.494Z,217.6
2022-12-13T12:16:47.384Z,206.7
2022-12-13T12:18:49.266Z,202.9
2022-12-13T12:20:51.184Z,210.4
2022-12-13T12:22:53.080Z,205.3
2022-12-13T12:24:55.000Z,180.5
2022-12-13T12:26:56.882Z,181.4
2022-12-13T12:33:05.791Z,131.4
2022-12-13T12:34:08.330Z,113.5
2022-12-13T12:42:19.137Z,90.4
2022-12-13T12:44:21.045Z,74.2
2022-12-13T12:46:23.065Z,77.6
2022-12-13T12:50:26.810Z,80.8
2022-12-13T12:52:28.730Z,81.3
2022-12-13T12:56:35.753Z,75.7
2022-12-13T12:58:37.690Z,96
2022-12-13T13:00:39.614Z,75.1
2022-12-13T13:06:45.350Z,73.4
2022-12-13T13:08:51.644Z,78.5
2022-12-13T13:10:52.362Z,81.2
2022-12-13T13:13:12.242Z,79
2022-12-13T13:14:56.172Z,77.1
2022-12-13T13:16:58.065Z,65.7
2022-12-13T13:18:59.982Z,77.4
2022-12-13T13:25:08.837Z,107
2022-12-13T13:27:10.756Z,79.8
2022-12-13T13:29:12.669Z,69.4
2022-12-13T13:31:33.743Z,84.2
2022-12-13T13:33:35.532Z,84.3
2022-12-13T13:35:37.366Z,85.7
2022-12-13T13:37:42.762Z,84.4
2022-12-13T13:39:44.669Z,92.9
2022-12-13T13:41:46.551Z,95.7
2022-12-13T13:43:48.443Z,94.1
2022-12-13T13:45:50.376Z,82.6
2022-12-13T13:47:52.211Z,78.6
2022-12-13T13:49:58.503Z,92.5
2022-12-13T13:54:01.044Z,81
2022-12-13T13:58:09.641Z,97.8
2022-12-13T14:00:06.834Z,100.2
2022-12-13T14:06:15.447Z,102.1
2022-12-13T14:08:20.324Z,108
2022-12-13T14:10:19.160Z,103.2
2022-12-13T14:12:21.046Z,93
2022-12-13T14:14:23.000Z,91.2
2022-12-13T14:18:26.633Z,113.9
2022-12-13T14:24:35.378Z,95.8
2022-12-13T14:25:40.275Z,105
2022-12-13T14:27:39.761Z,113.1
2022-12-13T14:29:41.595Z,117.5
2022-12-13T14:31:43.585Z,87.5
2022-12-13T14:33:48.468Z,120.7
2022-12-13T14:35:50.325Z,97.8
2022-12-13T14:37:52.282Z,221.2
2022-12-13T14:39:54.009Z,142.8
2022-12-13T14:41:56.597Z,130.7
2022-12-13T14:43:57.693Z,173.9
2022-12-13T14:48:04.576Z,166.1
2022-12-13T14:50:06.374Z,169.3
2022-12-13T14:52:08.221Z,146.6
2022-12-13T14:54:10.091Z,150
2022-12-13T15:00:15.594Z,117.8
2022-12-13T15:04:22.462Z,101.3
2022-12-13T15:08:26.097Z,98.5
2022-12-13T15:10:27.921Z,100.5
2022-12-13T15:12:29.757Z,100.5
2022-12-13T15:14:31.580Z,101.4
2022-12-13T15:16:36.591Z,112.4
2022-12-13T15:18:38.418Z,115.3
2022-12-13T15:20:40.269Z,122.9
2022-12-13T15:25:46.362Z,143.9
2022-12-13T15:27:49.684Z,123.7
2022-12-13T15:31:56.483Z,124.9
2022-12-13T15:34:01.259Z,115.7
2022-12-13T15:38:01.842Z,139.4
2022-12-13T15:40:03.785Z,117.8
2022-12-13T15:42:05.480Z,140.1
2022-12-13T15:44:10.450Z,137
2022-12-13T15:46:12.299Z,157.2
2022-12-13T15:50:15.890Z,154.8
2022-12-13T15:52:17.706Z,171.4
2022-12-13T15:54:19.505Z,145.3
2022-12-13T15:58:26.274Z,175.8
2022-12-13T16:00:30.953Z,158.7
2022-12-13T16:02:29.914Z,142.9
2022-12-13T16:04:31.704Z,159.4
2022-12-13T16:06:33.487Z,146.2
2022-12-13T16:08:35.300Z,165.4
2022-12-13T16:10:37.098Z,150.7
2022-12-13T16:12:47.639Z,168.2
2022-12-13T16:16:45.714Z,181
2022-12-13T16:17:48.125Z,155.5
2022-12-13T16:19:49.974Z,147.1
2022-12-13T16:21:51.766Z,161.3
2022-12-13T16:23:53.552Z,164.8
2022-12-13T16:25:58.521Z,182
2022-12-13T16:28:00.349Z,146
2022-12-13T16:30:02.166Z,135.5
2022-12-13T16:32:08.294Z,127.1
2022-12-13T16:34:05.736Z,120.8
2022-12-13T16:38:09.631Z,109
2022-12-13T16:40:14.333Z,138
2022-12-13T16:42:16.244Z,170.6
2022-12-13T16:44:17.954Z,161.3
2022-12-13T16:47:12.940Z,129.8
2022-12-13T16:48:21.717Z,158.7
2022-12-13T16:50:23.393Z,147.5
2022-12-13T16:52:25.190Z,154.1
2022-12-13T16:54:30.144Z,207.8
2022-12-13T16:56:31.974Z,140.1
2022-12-13T16:58:33.782Z,131.1
2022-12-13T17:00:35.573Z,120
2022-12-13T17:02:37.472Z,130.8
2022-12-13T17:04:39.205Z,169.4
2022-12-13T17:06:41.017Z,150.7
2022-12-13T17:08:46.013Z,175.8
2022-12-13T17:10:47.838Z,226.5
2022-12-13T17:12:49.636Z,232.7
2022-12-13T17:15:11.499Z,138
2022-12-13T17:21:20.164Z,129.1
2022-12-13T17:27:25.554Z,125
2022-12-13T17:31:34.927Z,131
2022-12-13T17:39:39.875Z,119.5
2022-12-13T17:41:41.711Z,122
2022-12-13T17:43:44.170Z,111.4
2022-12-13T17:49:52.160Z,152.9
2022-12-13T17:51:54.471Z,134.5
2022-12-13T17:53:55.820Z,138.7
2022-12-13T17:55:57.661Z,118.8
2022-12-13T17:58:04.270Z,123.3
2022-12-13T18:00:01.302Z,140.1
2022-12-13T18:02:03.137Z,129.4
2022-12-13T18:04:08.120Z,138.7
2022-12-13T18:06:09.947Z,141.9
2022-12-13T18:08:11.769Z,135.7
2022-12-13T18:13:17.890Z,125.1
2022-12-13T18:15:19.715Z,120.5
2022-12-13T18:17:46.753Z,141
2022-12-13T18:19:26.517Z,150.4
2022-12-13T18:21:28.345Z,141.6
2022-12-13T18:23:30.139Z,143.5
2022-12-13T18:25:31.987Z,113.2
2022-12-13T18:27:33.786Z,124.5
2022-12-13T18:29:35.606Z,131.1
2022-12-13T18:31:40.625Z,131.3
2022-12-13T18:33:47.256Z,124
2022-12-13T18:35:44.255Z,110.8
2022-12-13T18:37:46.058Z,112.8
2022-12-13T18:39:54.696Z,115.8
2022-12-13T18:41:49.668Z,129.5
2022-12-13T18:43:51.509Z,129.2
2022-12-13T18:45:56.528Z,141.9
2022-12-13T18:47:58.254Z,117.4
2022-12-13T18:50:00.119Z,110.2
2022-12-13T18:52:01.881Z,140.8
2022-12-13T18:54:03.719Z,98.5
2022-12-13T18:56:05.523Z,123.1
2022-12-13T19:00:12.296Z,105.2
2022-12-13T19:02:14.121Z,139.4
2022-12-13T19:04:15.937Z,122.8
2022-12-13T19:07:20.252Z,202.1
2022-12-13T19:09:22.052Z,182.9
2022-12-13T19:11:23.849Z,186.1
2022-12-13T19:13:29.252Z,115.8
2022-12-13T19:15:30.653Z,137.6
2022-12-13T19:17:32.476Z,137.8
2022-12-13T19:19:34.270Z,120.4
2022-12-13T19:21:36.073Z,120.5
2022-12-13T19:23:39.307Z,137.7
2022-12-13T19:25:39.651Z,111.6
2022-12-13T19:27:44.653Z,137.1
2022-12-13T19:29:46.443Z,156.5
2022-12-13T19:31:48.307Z,150.3
2022-12-13T19:33:50.062Z,172.4
2022-12-13T19:35:51.885Z,126.1
2022-12-13T19:37:53.675Z,165.8
2022-12-13T19:39:55.554Z,157.8
2022-12-13T19:42:00.426Z,133.2
2022-12-13T19:44:02.230Z,127.6
2022-12-13T19:46:04.102Z,127.8
2022-12-13T19:48:05.823Z,124.1
2022-12-13T19:50:07.627Z,115
2022-12-13T19:52:09.443Z,111.9
2022-12-13T19:54:11.218Z,116.5
2022-12-13T19:56:16.183Z,131.1
2022-12-13T19:58:17.973Z,123.5
2022-12-13T20:00:19.815Z,112.4
2022-12-13T20:01:22.322Z,118.5
2022-12-13T20:03:24.483Z,144.9
2022-12-13T20:05:25.805Z,170.1
2022-12-13T20:07:27.572Z,166.7
2022-12-13T20:09:32.538Z,159.3
2022-12-13T20:11:34.345Z,192.5
2022-12-13T20:13:36.130Z,182.3
2022-12-13T20:15:37.903Z,195.6
2022-12-13T20:17:39.682Z,179.5
2022-12-13T20:19:41.479Z,162.6
2022-12-13T20:21:43.292Z,159.4
2022-12-13T20:25:50.025Z,142.3
2022-12-13T20:27:51.814Z,143.1
2022-12-13T20:29:53.620Z,161.3
2022-12-13T20:31:55.494Z,138.6
2022-12-13T20:33:57.217Z,146.5
2022-12-13T20:36:23.126Z,146
2022-12-13T20:38:03.940Z,154.9
2022-12-13T20:40:05.771Z,135.5
2022-12-13T20:42:07.534Z,146.9
2022-12-13T20:44:09.430Z,133.1
2022-12-13T20:46:11.239Z,118.2
2022-12-13T20:48:12.892Z,137.8
2022-12-13T20:50:14.709Z,148.3
2022-12-13T20:52:19.674Z,143.9
2022-12-13T20:54:21.478Z,146.6
2022-12-13T20:56:23.259Z,134.1
2022-12-13T20:58:46.281Z,152.4
2022-12-13T21:00:48.117Z,126.9
2022-12-13T21:13:02.073Z,135.1
2022-12-13T21:17:05.649Z,147.4
2022-12-13T21:19:12.137Z,154.3
2022-12-13T21:21:13.981Z,126.3
2022-12-13T21:23:15.772Z,137.9
2022-12-13T21:25:17.571Z,128.4
2022-12-13T21:31:22.989Z,126.8
2022-12-13T21:41:35.175Z,142.7
2022-12-13T21:45:38.823Z,123.1
2022-12-13T21:49:48.393Z,148.6
2022-12-13T21:51:48.188Z,147.7
2022-12-13T21:52:49.991Z,144
2022-12-13T21:55:03.439Z,134.2
2022-12-13T21:56:53.493Z,111.5
2022-12-13T21:58:55.269Z,107.4
2022-12-13T22:01:00.304Z,122.6
2022-12-13T22:03:02.051Z,122.3
2022-12-13T22:05:03.861Z,121.2
2022-12-13T22:07:05.686Z,117
2022-12-13T22:09:07.502Z,115.2
2022-12-13T22:11:09.300Z,107.3
2022-12-13T22:13:11.100Z,96.9
2022-12-13T22:15:16.076Z,127.3
2022-12-13T22:17:17.889Z,97.9
2022-12-13T22:19:19.686Z,104.8
2022-12-13T22:23:23.304Z,124.3
2022-12-13T22:25:25.114Z,115.7
2022-12-13T22:27:26.926Z,99.9
2022-12-13T22:29:31.869Z,115.6
2022-12-13T22:31:33.728Z,110.1
2022-12-13T22:33:35.498Z,110.5
2022-12-13T22:35:37.314Z,84.7
2022-12-13T22:37:39.136Z,107.9
2022-12-13T22:39:40.925Z,126
2022-12-13T22:41:42.777Z,121.4
2022-12-13T22:43:48.409Z,108.3
2022-12-13T22:45:49.603Z,105.2
2022-12-13T22:47:51.347Z,102.3
2022-12-13T22:48:53.823Z,103.4
2022-12-13T22:50:55.660Z,110
2022-12-13T23:03:09.737Z,99
2022-12-13T23:05:11.515Z,97.7
2022-12-13T23:07:13.355Z,116.6
2022-12-13T23:09:15.147Z,99.1
2022-12-13T23:11:20.119Z,121.1
2022-12-13T23:13:21.936Z,97.4
2022-12-13T23:15:23.781Z,102.5
2022-12-13T23:17:25.559Z,106.7
2022-12-13T23:19:52.852Z,107.4
2022-12-13T23:21:29.196Z,109.2
2022-12-13T23:23:30.991Z,111.7
2022-12-13T23:25:35.972Z,116
2022-12-13T23:27:37.762Z,93.1
2022-12-13T23:33:43.192Z,98.8
2022-12-13T23:35:45.025Z,92.1
2022-12-13T23:39:51.770Z,102.5
2022-12-13T23:41:53.569Z,106.1
2022-12-13T23:44:57.857Z,94.2
2022-12-13T23:51:03.252Z,92.3
2022-12-13T23:53:08.217Z,107
2022-12-13T23:55:10.018Z,110.1
2022-12-13T23:57:11.801Z,95.8
2022-12-13T23:59:13.610Z,105
